createdAt,value
2018-08-04T00:02:27.036Z,22.40
2018-08-04T00:04:57.528Z,22.40
2018-08-04T00:07:28.053Z,22.40
2018-08-04T00:09:59.037Z,22.30
2018-08-04T00:12:29.471Z,22.30
2018-08-04T00:14:59.972Z,22.20
2018-08-04T00:17:30.938Z,22.20
2018-08-04T00:20:01.372Z,22.20
2018-08-04T00:22:32.553Z,22.20
2018-08-04T00:25:03.629Z,22.20
2018-08-04T00:27:34.793Z,22.00
2018-08-04T00:30:06.512Z,21.90
2018-08-04T00:32:37.696Z,21.90
2018-08-04T00:35:08.589Z,21.70
2018-08-04T00:37:39.911Z,21.80
2018-08-04T00:40:12.437Z,21.80
2018-08-04T00:42:43.598Z,21.80
2018-08-04T00:45:13.964Z,21.70
2018-08-04T00:47:44.508Z,21.60
2018-08-04T00:50:15.024Z,21.60
2018-08-04T00:52:45.636Z,21.60
2018-08-04T00:55:16.165Z,21.60
2018-08-04T00:57:47.260Z,21.60
2018-08-04T01:00:18.089Z,21.50
2018-08-04T01:02:48.754Z,21.50
2018-08-04T01:05:19.739Z,21.40
2018-08-04T01:07:50.392Z,21.40
2018-08-04T01:12:50.748Z,21.30
2018-08-04T01:15:21.270Z,21.30
2018-08-04T01:17:51.802Z,21.30
2018-08-04T01:20:22.358Z,21.30
2018-08-04T01:22:52.876Z,21.30
2018-08-04T01:25:23.992Z,21.30
2018-08-04T01:27:54.533Z,21.30
2018-08-04T01:30:25.365Z,21.20
2018-08-04T01:32:55.864Z,21.20
2018-08-04T01:35:26.856Z,21.20
2018-08-04T01:37:57.285Z,21.20
2018-08-04T01:40:28.177Z,21.20
2018-08-04T01:42:58.737Z,21.20
2018-08-04T01:45:29.836Z,21.20
2018-08-04T01:48:00.705Z,21.20
2018-08-04T01:50:31.666Z,21.30
2018-08-04T01:53:02.126Z,21.30
2018-08-04T01:55:32.872Z,21.30
2018-08-04T01:58:03.489Z,21.20
2018-08-04T02:00:33.636Z,21.10
2018-08-04T02:03:04.560Z,21.00
2018-08-04T02:05:34.976Z,21.00
2018-08-04T02:08:06.430Z,21.00
2018-08-04T02:10:37.251Z,20.90
2018-08-04T02:13:07.909Z,20.90
2018-08-04T02:15:39.263Z,20.90
2018-08-04T02:18:10.424Z,20.90
2018-08-04T02:20:40.924Z,20.90
2018-08-04T02:23:11.775Z,20.90
2018-08-04T02:25:42.308Z,20.90
2018-08-04T02:28:12.913Z,20.90
2018-08-04T02:30:43.349Z,20.90
2018-08-04T02:33:14.264Z,20.80
2018-08-04T02:35:44.698Z,20.80
2018-08-04T02:38:15.978Z,20.80
2018-08-04T02:43:16.656Z,20.70
2018-08-04T02:45:47.472Z,20.70
2018-08-04T02:48:18.684Z,20.70
2018-08-04T02:50:49.185Z,20.70
2018-08-04T02:53:19.741Z,20.80
2018-08-04T02:55:50.540Z,20.80
2018-08-04T02:58:21.076Z,20.80
2018-08-04T03:00:51.605Z,20.70
2018-08-04T03:03:22.683Z,20.70
2018-08-04T03:05:53.344Z,20.70
2018-08-04T03:10:54.579Z,20.70
2018-08-04T03:13:25.477Z,20.70
2018-08-04T03:15:55.957Z,20.60
2018-08-04T03:18:26.957Z,20.50
2018-08-04T03:20:58.204Z,20.50
2018-08-04T03:23:28.804Z,20.50
2018-08-04T03:25:59.792Z,20.40
2018-08-04T03:28:30.252Z,20.40
2018-08-04T03:31:01.369Z,20.40
2018-08-04T03:33:31.940Z,20.40
2018-08-04T03:36:02.792Z,20.40
2018-08-04T03:38:33.701Z,20.50
2018-08-04T03:41:04.161Z,20.50
2018-08-04T03:43:34.684Z,20.50
2018-08-04T03:46:05.281Z,20.60
2018-08-04T03:48:36.013Z,20.60
2018-08-04T03:51:06.705Z,20.60
2018-08-04T03:53:37.420Z,20.60
2018-08-04T03:56:07.949Z,20.70
2018-08-04T03:58:38.796Z,20.70
2018-08-04T04:01:09.268Z,20.70
2018-08-04T04:03:39.800Z,20.80
2018-08-04T04:06:10.545Z,20.80
2018-08-04T04:08:41.548Z,20.90
2018-08-04T04:11:11.985Z,21.00
2018-08-04T04:13:42.523Z,21.10
2018-08-04T04:16:13.109Z,21.10
2018-08-04T04:18:44.253Z,21.20
2018-08-04T04:21:15.023Z,21.30
2018-08-04T04:23:45.802Z,21.30
2018-08-04T04:26:15.865Z,21.30
2018-08-04T04:28:46.758Z,21.20
2018-08-04T04:31:17.163Z,21.30
2018-08-04T04:33:48.123Z,21.40
2018-08-04T04:36:18.536Z,21.50
2018-08-04T04:38:49.652Z,21.50
2018-08-04T04:41:20.200Z,21.50
2018-08-04T04:43:50.776Z,21.50
2018-08-04T04:46:21.688Z,21.40
2018-08-04T04:48:52.117Z,21.40
2018-08-04T04:51:23.227Z,21.40
2018-08-04T04:53:54.368Z,21.50
2018-08-04T04:56:24.953Z,21.50
2018-08-04T04:58:55.808Z,21.50
2018-08-04T05:01:26.585Z,21.50
2018-08-04T05:03:58.000Z,21.60
2018-08-04T05:06:28.633Z,21.60
2018-08-04T05:08:59.748Z,21.60
2018-08-04T05:11:30.615Z,21.70
2018-08-04T05:14:01.445Z,21.80
2018-08-04T05:16:31.859Z,21.90
2018-08-04T05:19:02.193Z,22.00
2018-08-04T05:21:33.010Z,22.10
2018-08-04T05:24:04.469Z,22.20
2018-08-04T05:26:34.977Z,22.30
2018-08-04T05:29:05.509Z,22.30
2018-08-04T05:31:35.980Z,22.50
2018-08-04T05:34:06.165Z,22.60
2018-08-04T05:36:36.812Z,22.70
2018-08-04T05:39:10.474Z,22.80
2018-08-04T05:41:41.155Z,23.00
2018-08-04T05:44:11.734Z,23.10
2018-08-04T05:46:42.241Z,23.40
2018-08-04T05:49:13.157Z,23.60
2018-08-04T05:51:43.590Z,23.80
2018-08-04T05:54:14.764Z,24.10
2018-08-04T05:56:45.236Z,24.30
2018-08-04T05:59:16.105Z,24.20
2018-08-04T06:01:47.289Z,24.40
2018-08-04T06:04:17.840Z,24.70
2018-08-04T06:06:48.603Z,24.90
2018-08-04T06:09:19.211Z,25.20
2018-08-04T06:11:49.925Z,25.20
2018-08-04T06:14:20.904Z,24.90
2018-08-04T06:16:51.332Z,24.80
2018-08-04T06:19:21.904Z,24.80
2018-08-04T06:21:52.668Z,24.80
2018-08-04T06:42:33.763Z,26.00
2018-08-04T06:45:07.655Z,26.00
2018-08-04T06:50:41.267Z,26.20
2018-08-04T06:53:11.454Z,25.90
2018-08-04T06:55:41.671Z,25.90
2018-08-04T06:58:11.822Z,26.00
2018-08-04T07:00:42.017Z,26.10
2018-08-04T07:03:12.132Z,26.50
2018-08-04T07:05:42.684Z,26.80
2018-08-04T07:08:12.770Z,26.90
2018-08-04T07:10:44.310Z,26.70
2018-08-04T07:13:14.405Z,26.80
2018-08-04T07:15:44.500Z,26.80
2018-08-04T07:18:14.592Z,26.70
2018-08-04T07:20:44.684Z,26.90
2018-08-04T07:23:14.845Z,27.20
2018-08-04T07:25:44.984Z,27.40
2018-08-04T07:28:15.066Z,27.70
2018-08-04T07:30:45.246Z,27.90
2018-08-04T07:33:15.399Z,28.10
2018-08-04T07:35:45.547Z,28.40
2018-08-04T07:38:30.204Z,28.50
2018-08-04T07:41:00.352Z,28.60
2018-08-04T07:43:30.489Z,28.60
2018-08-04T07:46:00.608Z,28.60
2018-08-04T07:48:30.876Z,28.80
2018-08-04T07:51:01.017Z,29.10
2018-08-04T07:53:31.132Z,29.30
2018-08-04T07:56:01.277Z,29.50
2018-08-04T07:58:31.404Z,29.70
2018-08-04T08:01:01.504Z,29.60
2018-08-04T08:03:31.627Z,29.60
2018-08-04T08:06:01.703Z,29.50
2018-08-04T08:08:31.773Z,29.40
2018-08-04T08:11:01.943Z,29.40
2018-08-04T08:13:32.016Z,29.50
2018-08-04T08:18:31.576Z,29.40
2018-08-04T08:21:01.764Z,29.50
2018-08-04T08:23:34.135Z,29.80
2018-08-04T08:26:09.533Z,29.80
2018-08-04T08:28:40.663Z,29.60
2018-08-04T08:31:11.101Z,29.40
2018-08-04T08:33:41.933Z,29.20
2018-08-04T08:36:12.468Z,29.00
2018-08-04T08:38:42.618Z,29.10
2018-08-04T08:41:12.802Z,29.30
2018-08-04T08:43:43.543Z,29.50
2018-08-04T09:01:44.854Z,28.10
2018-08-04T09:04:15.074Z,27.80
2018-08-04T09:06:45.650Z,27.00
2018-08-04T09:09:16.158Z,26.50
2018-08-04T09:11:46.670Z,26.10
2018-08-04T09:14:17.195Z,25.90
2018-08-04T09:16:47.698Z,25.90
2018-08-04T09:19:18.129Z,25.90
2018-08-04T09:24:18.082Z,26.60
2018-08-04T09:26:48.354Z,27.00
2018-08-04T09:29:18.522Z,27.50
2018-08-04T09:31:48.682Z,27.80
2018-08-04T09:34:18.918Z,27.70
2018-08-04T09:36:49.093Z,27.50
2018-08-04T09:39:19.318Z,27.20
2018-08-04T09:41:49.474Z,27.00
2018-08-04T09:44:19.662Z,26.90
2018-08-04T09:46:51.967Z,26.80
2018-08-04T09:49:22.138Z,26.70
2018-08-04T09:51:52.332Z,26.80
2018-08-04T09:54:22.483Z,26.80
2018-08-04T09:56:52.702Z,26.70
2018-08-04T09:59:22.925Z,26.90
2018-08-04T10:01:57.149Z,27.20
2018-08-04T10:04:27.297Z,27.30
2018-08-04T10:06:57.453Z,27.40
2018-08-04T10:09:27.593Z,27.20
2018-08-04T10:11:57.757Z,27.30
2018-08-04T10:14:28.098Z,27.40
2018-08-04T10:16:58.286Z,27.40
2018-08-04T10:19:28.647Z,27.50
2018-08-04T10:24:28.309Z,27.50
2018-08-04T10:26:58.538Z,27.80
2018-08-04T10:29:28.706Z,27.80
2018-08-04T10:31:58.893Z,28.10
2018-08-04T10:34:29.070Z,28.40
2018-08-04T10:36:59.298Z,28.60
2018-08-04T10:39:29.454Z,28.70
2018-08-04T10:41:59.940Z,28.90
2018-08-04T10:44:30.082Z,28.90
2018-08-04T10:47:00.404Z,28.90
2018-08-04T10:49:30.640Z,28.70
2018-08-04T10:52:01.319Z,28.90
2018-08-04T10:54:31.485Z,29.10
2018-08-04T10:57:01.700Z,29.00
2018-08-04T10:59:31.866Z,29.10
2018-08-04T11:02:02.494Z,29.20
2018-08-04T11:04:33.019Z,29.30
2018-08-04T11:07:03.221Z,29.50
2018-08-04T11:09:33.449Z,29.70
2018-08-04T11:12:03.663Z,29.90
2018-08-04T11:14:33.849Z,29.90
2018-08-04T11:17:04.023Z,30.20
2018-08-04T11:19:34.368Z,30.20
2018-08-04T11:22:04.759Z,30.10
2018-08-04T11:24:34.957Z,30.20
2018-08-04T11:27:05.211Z,30.30
2018-08-04T11:29:35.373Z,30.50
2018-08-04T11:32:06.072Z,30.60
2018-08-04T11:34:36.661Z,30.80
2018-08-04T11:37:07.218Z,31.00
2018-08-04T11:39:37.618Z,31.20
2018-08-04T11:42:08.358Z,31.20
2018-08-04T11:44:39.749Z,31.60
2018-08-04T11:49:40.077Z,31.90
2018-08-04T11:52:10.657Z,31.70
2018-08-04T11:54:41.266Z,32.50
2018-08-04T11:57:11.503Z,32.50
2018-08-04T11:59:42.006Z,32.30
2018-08-04T12:04:42.321Z,32.20
2018-08-04T12:07:12.540Z,32.20
2018-08-04T12:09:42.760Z,32.70
2018-08-04T12:12:13.285Z,32.90
2018-08-04T12:14:43.875Z,33.00
2018-08-04T12:17:14.607Z,33.10
2018-08-04T12:19:45.213Z,33.30
2018-08-04T12:22:15.924Z,33.30
2018-08-04T12:24:46.460Z,33.20
2018-08-04T12:27:17.322Z,33.70
2018-08-04T12:29:47.930Z,34.20
2018-08-04T12:34:49.380Z,34.90
2018-08-04T12:37:19.921Z,34.90
2018-08-04T12:39:50.403Z,35.20
2018-08-04T12:42:20.929Z,34.90
2018-08-04T12:44:51.708Z,35.70
2018-08-04T12:47:22.145Z,35.90
2018-08-04T12:49:52.595Z,37.20
2018-08-04T12:52:23.013Z,37.00
2018-08-04T12:54:53.570Z,38.10
2018-08-04T12:57:24.114Z,38.90
2018-08-04T12:59:54.634Z,37.10
2018-08-04T13:02:25.150Z,37.10
2018-08-04T13:04:55.575Z,37.50
2018-08-04T13:07:25.900Z,37.60
2018-08-04T13:09:56.306Z,38.20
2018-08-04T13:12:26.898Z,38.60
2018-08-04T13:14:57.490Z,38.70
2018-08-04T13:17:28.123Z,38.60
2018-08-04T13:19:58.290Z,37.90
2018-08-04T13:22:28.868Z,37.90
2018-08-04T13:24:59.430Z,38.30
2018-08-04T13:27:29.953Z,37.80
2018-08-04T13:30:00.352Z,38.10
2018-08-04T13:32:30.862Z,38.30
2018-08-04T13:35:01.315Z,38.60
2018-08-04T13:37:31.959Z,38.10
2018-08-04T13:40:02.590Z,37.30
2018-08-04T13:42:33.326Z,37.60
2018-08-04T13:45:03.546Z,37.30
2018-08-04T13:47:33.800Z,36.50
2018-08-04T13:50:04.214Z,37.70
2018-08-04T13:52:34.516Z,38.60
2018-08-04T13:55:04.994Z,39.30
2018-08-04T14:00:04.977Z,38.90
2018-08-04T14:02:35.243Z,38.20
2018-08-04T14:05:05.644Z,38.00
2018-08-04T14:07:35.868Z,37.50
2018-08-04T14:10:06.024Z,37.20
2018-08-04T14:12:36.205Z,36.40
2018-08-04T14:15:06.575Z,36.30
2018-08-04T14:17:36.810Z,36.70
2018-08-04T14:20:07.111Z,37.10
2018-08-04T14:22:37.411Z,37.50
2018-08-04T14:25:07.602Z,37.90
2018-08-04T14:27:37.824Z,37.10
2018-08-04T14:30:10.194Z,36.60
2018-08-04T14:32:40.425Z,35.70
2018-08-04T14:35:10.667Z,35.60
2018-08-04T14:37:40.914Z,36.60
2018-08-04T14:40:11.133Z,37.70
2018-08-04T14:45:10.908Z,37.60
2018-08-04T14:47:41.189Z,38.00
2018-08-04T14:50:11.517Z,39.00
2018-08-04T14:52:41.735Z,40.20
2018-08-04T14:55:11.961Z,41.00
2018-08-04T14:57:42.177Z,42.10
2018-08-04T15:02:41.857Z,41.20
2018-08-04T15:05:12.099Z,39.70
2018-08-04T15:07:42.269Z,38.00
2018-08-04T15:10:12.515Z,38.20
2018-08-04T15:12:42.673Z,37.20
2018-08-04T15:15:12.830Z,36.30
2018-08-04T15:17:43.362Z,35.40
2018-08-04T15:20:13.768Z,35.10
2018-08-04T15:22:44.192Z,35.20
2018-08-04T15:25:14.593Z,35.20
2018-08-04T15:27:44.773Z,35.00
2018-08-04T15:30:15.365Z,34.80
2018-08-04T15:32:45.550Z,34.20
2018-08-04T15:35:16.135Z,33.90
2018-08-04T15:37:46.314Z,34.40
2018-08-04T15:40:16.626Z,34.10
2018-08-04T15:42:47.190Z,34.20
2018-08-04T15:47:47.379Z,33.80
2018-08-04T15:50:17.970Z,33.60
2018-08-04T15:52:48.141Z,33.00
2018-08-04T15:55:18.305Z,32.60
2018-08-04T15:57:48.559Z,32.40
2018-08-04T16:00:18.719Z,32.00
2018-08-04T16:02:48.983Z,31.80
2018-08-04T16:05:19.449Z,31.50
2018-08-04T16:07:50.055Z,31.40
2018-08-04T16:10:20.228Z,31.20
2018-08-04T16:12:50.650Z,31.10
2018-08-04T16:15:21.455Z,30.90
2018-08-04T16:17:52.957Z,30.80
2018-08-04T16:20:23.402Z,30.80
2018-08-04T16:22:54.048Z,30.70
2018-08-04T16:25:24.255Z,30.70
2018-08-04T16:27:54.538Z,30.60
2018-08-04T16:30:24.881Z,30.40
2018-08-04T16:32:55.088Z,30.20
2018-08-04T16:40:30.037Z,29.70
2018-08-04T16:43:00.757Z,29.60
2018-08-04T16:47:02.490Z,29.50
2018-08-04T16:49:32.977Z,29.40
2018-08-04T16:54:33.217Z,29.10
2018-08-04T16:59:33.587Z,29.00
2018-08-04T17:02:04.205Z,28.90
2018-08-04T17:04:34.620Z,28.80
2018-08-04T17:09:35.102Z,28.40
2018-08-04T17:12:05.646Z,28.30
2018-08-04T17:14:36.122Z,28.20
2018-08-04T17:19:35.761Z,28.20
2018-08-04T17:22:05.967Z,28.00
2018-08-04T17:27:05.831Z,27.80
2018-08-04T17:29:36.114Z,27.90
2018-08-04T17:32:06.762Z,27.90
2018-08-04T17:34:37.293Z,27.70
2018-08-04T17:37:07.550Z,27.50
2018-08-04T17:39:37.819Z,27.50
2018-08-04T17:42:07.993Z,27.50
2018-08-04T17:44:38.274Z,27.50
2018-08-04T17:47:10.042Z,27.50
2018-08-04T17:49:40.253Z,27.40
2018-08-04T17:54:39.958Z,27.20
2018-08-04T17:57:10.788Z,27.10
2018-08-04T18:02:11.174Z,27.30
2018-08-04T18:04:41.793Z,27.30
2018-08-04T18:07:12.346Z,27.40
2018-08-04T18:09:42.995Z,27.30
2018-08-04T18:12:13.630Z,27.30
2018-08-04T18:14:44.176Z,27.30
2018-08-04T18:17:14.525Z,27.40
2018-08-04T18:22:14.818Z,27.40
2018-08-04T18:24:45.300Z,27.30
2018-08-04T18:29:45.571Z,26.70
2018-08-04T18:32:16.099Z,26.60
2018-08-04T18:34:46.713Z,26.50
2018-08-04T18:37:17.362Z,26.50
2018-08-04T18:39:48.000Z,26.40
2018-08-04T18:42:18.773Z,26.40
2018-08-04T18:44:49.298Z,26.30
2018-08-04T18:47:19.686Z,26.20
2018-08-04T18:49:50.309Z,26.10
2018-08-04T18:52:20.940Z,26.00
2018-08-04T18:54:51.478Z,25.90
2018-08-04T18:57:22.056Z,25.80
2018-08-04T18:59:52.854Z,25.80
2018-08-04T19:02:23.458Z,25.70
2018-08-04T19:04:53.977Z,25.60
2018-08-04T19:07:24.523Z,25.50
2018-08-04T19:09:55.159Z,25.50
2018-08-04T19:12:25.740Z,25.50
2018-08-04T19:14:56.305Z,25.40
2018-08-04T19:17:26.920Z,25.40
2018-08-04T19:24:56.949Z,25.20
2018-08-04T19:27:27.523Z,25.10
2018-08-04T19:29:58.130Z,25.00
2018-08-04T19:32:28.666Z,24.90
2018-08-04T19:34:59.292Z,24.70
2018-08-04T19:37:29.808Z,24.70
2018-08-04T19:44:59.829Z,24.40
2018-08-04T19:47:30.327Z,24.30
2018-08-04T19:50:00.964Z,24.00
2018-08-04T19:52:31.532Z,23.90
2018-08-04T19:55:02.071Z,23.70
2018-08-04T19:57:32.219Z,23.60
2018-08-04T20:00:02.394Z,23.60
2018-08-04T20:02:32.604Z,23.60
2018-08-04T20:05:03.204Z,23.70
2018-08-04T20:07:33.613Z,23.60
2018-08-04T20:10:03.877Z,23.50
2018-08-04T20:12:34.490Z,23.40
2018-08-04T20:15:05.242Z,23.20
2018-08-04T20:17:35.806Z,23.20
2018-08-04T20:22:35.828Z,23.20
2018-08-04T20:25:07.071Z,23.20
2018-08-04T20:27:37.325Z,23.10
2018-08-04T20:30:07.875Z,23.00
2018-08-04T20:32:38.485Z,23.00
2018-08-04T20:37:38.456Z,22.90
2018-08-04T20:40:08.734Z,22.90
2018-08-04T20:42:39.189Z,23.00
2018-08-04T20:45:09.703Z,22.90
2018-08-04T20:47:39.931Z,22.80
2018-08-04T20:50:10.153Z,22.60
2018-08-04T20:52:40.339Z,22.50
2018-08-04T20:55:10.538Z,22.40
2018-08-04T20:57:40.756Z,22.20
2018-08-04T21:00:11.606Z,22.10
2018-08-04T21:02:42.177Z,22.10
2018-08-04T21:05:12.938Z,22.00
2018-08-04T21:07:43.428Z,21.90
2018-08-04T21:10:13.922Z,21.90
2018-08-04T21:12:44.147Z,21.90
2018-08-04T21:15:14.359Z,22.00
2018-08-04T21:17:44.557Z,21.90
2018-08-04T21:20:14.785Z,21.90
2018-08-04T21:22:44.954Z,21.80
2018-08-04T21:27:44.786Z,21.70
2018-08-04T21:30:15.062Z,21.60
2018-08-04T21:32:45.194Z,21.60
2018-08-04T21:35:15.687Z,21.50
2018-08-04T21:37:46.190Z,21.30
2018-08-04T21:40:16.613Z,21.10
2018-08-04T21:45:16.570Z,21.10
2018-08-04T21:47:47.182Z,21.20
2018-08-04T21:50:17.710Z,21.10
2018-08-04T21:52:54.661Z,21.10
2018-08-04T21:55:25.384Z,21.20
2018-08-04T21:57:55.733Z,21.10
2018-08-04T22:00:26.340Z,21.00
2018-08-04T22:03:00.688Z,21.00
2018-08-04T22:05:31.681Z,21.10
2018-08-04T22:08:13.500Z,21.10
2018-08-04T22:10:44.117Z,21.10
2018-08-04T22:13:14.718Z,20.90
2018-08-04T22:15:45.127Z,20.80
2018-08-04T22:18:15.650Z,20.80
2018-08-04T22:20:46.157Z,20.90
2018-08-04T22:23:16.728Z,21.00
2018-08-04T22:25:47.309Z,21.00
2018-08-04T22:28:17.796Z,20.90
2018-08-04T22:30:48.295Z,20.80
2018-08-04T22:33:18.757Z,20.80
2018-08-04T22:35:49.235Z,20.80
2018-08-04T22:38:19.690Z,20.70
2018-08-04T22:40:50.302Z,20.60
2018-08-04T22:43:20.789Z,20.50
2018-08-04T22:46:16.726Z,20.50
2018-08-04T22:48:48.497Z,20.50
2018-08-04T22:51:25.359Z,20.40
2018-08-04T22:53:55.785Z,20.30
2018-08-04T22:56:26.589Z,20.20
2018-08-04T22:58:57.204Z,20.30
2018-08-04T23:01:27.765Z,20.50
2018-08-04T23:03:58.402Z,20.50
2018-08-04T23:06:29.462Z,20.80
2018-08-04T23:09:00.067Z,21.20
2018-08-04T23:11:30.598Z,21.60
2018-08-04T23:14:01.124Z,21.70
2018-08-04T23:16:31.586Z,21.90
2018-08-04T23:19:02.162Z,21.80
2018-08-04T23:26:32.660Z,21.80
2018-08-04T23:29:03.240Z,21.80
2018-08-04T23:31:33.802Z,21.80
2018-08-04T23:34:04.297Z,21.80
2018-08-04T23:36:34.885Z,21.90
2018-08-04T23:39:06.532Z,21.90
2018-08-04T23:41:37.179Z,21.90
2018-08-04T23:44:07.574Z,22.00
2018-08-04T23:46:38.137Z,22.00
2018-08-04T23:49:08.763Z,22.00
2018-08-04T23:51:39.293Z,22.00
2018-08-04T23:54:09.760Z,21.90
2018-08-04T23:56:40.337Z,21.70
2018-08-04T23:59:10.666Z,21.50
